sensor_id;sensor_type;location;lat;lon;timestamp;pressure;altitude;pressure_sealevel;temperature;humidity
84746;BME280;74975;51.922;6.480;2024-02-14T00:01:03;101338.94;;;7.37;98.41
84746;BME280;74975;51.922;6.480;2024-02-14T00:03:35;101331.22;;;7.35;98.19
84746;BME280;74975;51.922;6.480;2024-02-14T00:06:13;101326.00;;;7.35;98.96
84746;BME280;74975;51.922;6.480;2024-02-14T00:08:48;101326.50;;;7.39;99.01
84746;BME280;74975;51.922;6.480;2024-02-14T00:11:28;101317.00;;;7.38;99.48
84746;BME280;74975;51.922;6.480;2024-02-14T00:13:59;101304.41;;;7.41;98.72
84746;BME280;74975;51.922;6.480;2024-02-14T00:16:33;101314.03;;;7.41;98.59
84746;BME280;74975;51.922;6.480;2024-02-14T00:19:09;101316.03;;;7.39;99.10
84746;BME280;74975;51.922;6.480;2024-02-14T00:21:40;101312.56;;;7.38;99.57
84746;BME280;74975;51.922;6.480;2024-02-14T00:24:15;101307.97;;;7.40;99.17
84746;BME280;74975;51.922;6.480;2024-02-14T00:26:55;101300.94;;;7.41;99.72
84746;BME280;74975;51.922;6.480;2024-02-14T00:29:29;101305.53;;;7.47;99.26
84746;BME280;74975;51.922;6.480;2024-02-14T00:32:09;101303.38;;;7.50;98.91
84746;BME280;74975;51.922;6.480;2024-02-14T00:34:50;101303.03;;;7.53;98.19
84746;BME280;74975;51.922;6.480;2024-02-14T00:37:24;101304.69;;;7.54;98.41
84746;BME280;74975;51.922;6.480;2024-02-14T00:40:04;101297.63;;;7.55;98.75
84746;BME280;74975;51.922;6.480;2024-02-14T00:42:36;101302.22;;;7.53;98.87
84746;BME280;74975;51.922;6.480;2024-02-14T00:45:09;101305.66;;;7.53;98.97
84746;BME280;74975;51.922;6.480;2024-02-14T00:47:40;101298.94;;;7.59;98.62
84746;BME280;74975;51.922;6.480;2024-02-14T00:50:17;101292.69;;;7.60;99.11
84746;BME280;74975;51.922;6.480;2024-02-14T00:52:48;101291.53;;;7.62;98.79
84746;BME280;74975;51.922;6.480;2024-02-14T00:55:26;101278.75;;;7.67;98.42
84746;BME280;74975;51.922;6.480;2024-02-14T00:58:00;101260.56;;;7.74;97.98
84746;BME280;74975;51.922;6.480;2024-02-14T01:00:37;101268.06;;;7.77;97.67
84746;BME280;74975;51.922;6.480;2024-02-14T01:03:08;101265.09;;;7.80;97.15
84746;BME280;74975;51.922;6.480;2024-02-14T01:05:43;101272.78;;;7.81;97.86
84746;BME280;74975;51.922;6.480;2024-02-14T01:08:22;101266.75;;;7.81;98.02
84746;BME280;74975;51.922;6.480;2024-02-14T01:11:00;101261.50;;;7.81;97.90
84746;BME280;74975;51.922;6.480;2024-02-14T01:13:44;101269.00;;;7.84;97.77
84746;BME280;74975;51.922;6.480;2024-02-14T01:16:10;101262.78;;;7.85;97.09
84746;BME280;74975;51.922;6.480;2024-02-14T01:18:51;101260.81;;;7.87;97.84
84746;BME280;74975;51.922;6.480;2024-02-14T01:21:22;101252.94;;;7.87;97.64
84746;BME280;74975;51.922;6.480;2024-02-14T01:23:57;101260.63;;;7.88;97.64
84746;BME280;74975;51.922;6.480;2024-02-14T01:26:32;101258.81;;;7.89;97.39
84746;BME280;74975;51.922;6.480;2024-02-14T01:29:03;101263.25;;;7.88;97.77
84746;BME280;74975;51.922;6.480;2024-02-14T01:31:41;101255.69;;;7.93;97.54
84746;BME280;74975;51.922;6.480;2024-02-14T01:34:17;101264.03;;;7.97;97.16
84746;BME280;74975;51.922;6.480;2024-02-14T01:36:52;101266.47;;;7.98;97.43
84746;BME280;74975;51.922;6.480;2024-02-14T01:39:29;101251.03;;;8.04;96.98
84746;BME280;74975;51.922;6.480;2024-02-14T01:42:02;101270.22;;;8.04;96.88
84746;BME280;74975;51.922;6.480;2024-02-14T01:44:43;101256.75;;;8.07;96.69
84746;BME280;74975;51.922;6.480;2024-02-14T01:47:18;101251.19;;;8.10;96.84
84746;BME280;74975;51.922;6.480;2024-02-14T01:49:52;101248.56;;;8.10;96.97
84746;BME280;74975;51.922;6.480;2024-02-14T01:52:30;101255.06;;;8.14;96.91
84746;BME280;74975;51.922;6.480;2024-02-14T01:55:12;101253.72;;;8.18;96.80
84746;BME280;74975;51.922;6.480;2024-02-14T01:57:47;101249.50;;;8.17;96.60
84746;BME280;74975;51.922;6.480;2024-02-14T02:00:26;101248.66;;;8.17;97.13
84746;BME280;74975;51.922;6.480;2024-02-14T02:03:02;101242.06;;;8.21;96.78
84746;BME280;74975;51.922;6.480;2024-02-14T02:05:42;101240.09;;;8.23;96.37
84746;BME280;74975;51.922;6.480;2024-02-14T02:08:20;101250.09;;;8.27;95.99
84746;BME280;74975;51.922;6.480;2024-02-14T02:10:56;101235.16;;;8.28;96.65
84746;BME280;74975;51.922;6.480;2024-02-14T02:13:27;101242.00;;;8.37;96.23
84746;BME280;74975;51.922;6.480;2024-02-14T02:15:59;101239.81;;;8.40;96.23
84746;BME280;74975;51.922;6.480;2024-02-14T02:18:35;101244.44;;;8.38;95.96
84746;BME280;74975;51.922;6.480;2024-02-14T02:21:06;101240.16;;;8.37;95.95
84746;BME280;74975;51.922;6.480;2024-02-14T02:23:38;101238.03;;;8.41;96.32
84746;BME280;74975;51.922;6.480;2024-02-14T02:26:13;101244.38;;;8.46;95.76
84746;BME280;74975;51.922;6.480;2024-02-14T02:28:47;101240.75;;;8.47;95.57
84746;BME280;74975;51.922;6.480;2024-02-14T02:31:20;101247.44;;;8.50;96.05
84746;BME280;74975;51.922;6.480;2024-02-14T02:33:51;101230.38;;;8.54;95.82
84746;BME280;74975;51.922;6.480;2024-02-14T02:36:25;101227.38;;;8.57;95.20
84746;BME280;74975;51.922;6.480;2024-02-14T02:39:01;101221.25;;;8.64;94.08
84746;BME280;74975;51.922;6.480;2024-02-14T02:41:32;101233.38;;;8.66;94.84
84746;BME280;74975;51.922;6.480;2024-02-14T02:44:04;101231.75;;;8.64;94.82
84746;BME280;74975;51.922;6.480;2024-02-14T02:46:38;101224.69;;;8.65;95.06
84746;BME280;74975;51.922;6.480;2024-02-14T02:49:12;101221.72;;;8.68;94.37
84746;BME280;74975;51.922;6.480;2024-02-14T02:51:51;101231.41;;;8.68;94.79
84746;BME280;74975;51.922;6.480;2024-02-14T02:54:17;101222.34;;;8.70;94.99
84746;BME280;74975;51.922;6.480;2024-02-14T02:56:49;101215.13;;;8.72;94.76
84746;BME280;74975;51.922;6.480;2024-02-14T02:59:25;101229.06;;;8.73;94.90
84746;BME280;74975;51.922;6.480;2024-02-14T03:01:56;101227.53;;;8.78;94.12
84746;BME280;74975;51.922;6.480;2024-02-14T03:04:29;101234.13;;;8.74;94.74
84746;BME280;74975;51.922;6.480;2024-02-14T03:07:03;101224.16;;;8.70;95.05
84746;BME280;74975;51.922;6.480;2024-02-14T03:09:35;101231.06;;;8.71;95.53
84746;BME280;74975;51.922;6.480;2024-02-14T03:12:11;101236.28;;;8.71;95.96
84746;BME280;74975;51.922;6.480;2024-02-14T03:14:42;101230.41;;;8.69;96.20
84746;BME280;74975;51.922;6.480;2024-02-14T03:17:17;101238.28;;;8.69;96.26
84746;BME280;74975;51.922;6.480;2024-02-14T03:19:56;101241.91;;;8.68;96.42
84746;BME280;74975;51.922;6.480;2024-02-14T03:22:32;101236.28;;;8.71;96.81
84746;BME280;74975;51.922;6.480;2024-02-14T03:25:17;101238.28;;;8.69;96.96
84746;BME280;74975;51.922;6.480;2024-02-14T03:27:43;101232.38;;;8.67;97.29
84746;BME280;74975;51.922;6.480;2024-02-14T03:30:24;101229.13;;;8.64;97.95
84746;BME280;74975;51.922;6.480;2024-02-14T03:33:06;101235.72;;;8.60;97.93
84746;BME280;74975;51.922;6.480;2024-02-14T03:35:45;101240.34;;;8.58;98.53
84746;BME280;74975;51.922;6.480;2024-02-14T03:38:25;101241.50;;;8.56;98.89
84746;BME280;74975;51.922;6.480;2024-02-14T03:40:57;101239.19;;;8.61;98.59
84746;BME280;74975;51.922;6.480;2024-02-14T03:43:32;101239.72;;;8.56;99.00
84746;BME280;74975;51.922;6.480;2024-02-14T03:46:04;101244.97;;;8.56;99.57
84746;BME280;74975;51.922;6.480;2024-02-14T03:48:37;101249.03;;;8.59;99.15
84746;BME280;74975;51.922;6.480;2024-02-14T03:51:09;101244.59;;;8.59;99.35
84746;BME280;74975;51.922;6.480;2024-02-14T03:53:46;101249.84;;;8.59;99.16
84746;BME280;74975;51.922;6.480;2024-02-14T03:56:22;101255.06;;;8.59;98.74
84746;BME280;74975;51.922;6.480;2024-02-14T03:58:53;101239.19;;;8.61;99.45
84746;BME280;74975;51.922;6.480;2024-02-14T04:01:24;101249.84;;;8.59;99.71
84746;BME280;74975;51.922;6.480;2024-02-14T04:04:01;101256.72;;;8.60;99.80
84746;BME280;74975;51.922;6.480;2024-02-14T04:06:33;101253.75;;;8.63;99.44
84746;BME280;74975;51.922;6.480;2024-02-14T04:09:11;101258.34;;;8.61;99.62
84746;BME280;74975;51.922;6.480;2024-02-14T04:11:45;101263.88;;;8.67;99.31
84746;BME280;74975;51.922;6.480;2024-02-14T04:14:24;101263.72;;;8.68;98.69
84746;BME280;74975;51.922;6.480;2024-02-14T04:16:56;101259.28;;;8.69;98.95
84746;BME280;74975;51.922;6.480;2024-02-14T04:19:34;101262.19;;;8.74;99.71
84746;BME280;74975;51.922;6.480;2024-02-14T04:22:09;101264.81;;;8.74;99.17
84746;BME280;74975;51.922;6.480;2024-02-14T04:24:42;101263.63;;;8.76;98.75
84746;BME280;74975;51.922;6.480;2024-02-14T04:27:17;101264.09;;;8.80;99.15
84746;BME280;74975;51.922;6.480;2024-02-14T04:29:52;101267.00;;;8.85;99.57
84746;BME280;74975;51.922;6.480;2024-02-14T04:32:31;101262.09;;;8.82;99.99
84746;BME280;74975;51.922;6.480;2024-02-14T04:35:06;101269.97;;;8.82;99.56
84746;BME280;74975;51.922;6.480;2024-02-14T04:37:40;101277.50;;;8.85;99.32
84746;BME280;74975;51.922;6.480;2024-02-14T04:40:15;101271.44;;;8.84;100.00
84746;BME280;74975;51.922;6.480;2024-02-14T04:42:49;101273.91;;;8.86;99.53
84746;BME280;74975;51.922;6.480;2024-02-14T04:45:21;101283.03;;;8.90;99.38
84746;BME280;74975;51.922;6.480;2024-02-14T04:47:56;101271.72;;;8.89;99.28
84746;BME280;74975;51.922;6.480;2024-02-14T04:50:31;101279.41;;;8.91;99.23
84746;BME280;74975;51.922;6.480;2024-02-14T04:53:09;101282.69;;;8.93;99.96
84746;BME280;74975;51.922;6.480;2024-02-14T04:55:47;101279.06;;;8.94;99.57
84746;BME280;74975;51.922;6.480;2024-02-14T04:58:25;101285.94;;;8.95;99.78
84746;BME280;74975;51.922;6.480;2024-02-14T05:01:00;101286.56;;;8.97;99.66
84746;BME280;74975;51.922;6.480;2024-02-14T05:03:33;101292.66;;;8.97;100.00
84746;BME280;74975;51.922;6.480;2024-02-14T05:06:12;101299.06;;;8.95;99.91
84746;BME280;74975;51.922;6.480;2024-02-14T05:08:46;101295.44;;;8.96;99.66
84746;BME280;74975;51.922;6.480;2024-02-14T05:11:23;101300.53;;;8.97;99.95
84746;BME280;74975;51.922;6.480;2024-02-14T05:13:55;101307.41;;;8.98;100.00
84746;BME280;74975;51.922;6.480;2024-02-14T05:16:32;101302.63;;;9.02;99.79
84746;BME280;74975;51.922;6.480;2024-02-14T05:19:08;101312.50;;;9.00;100.00
84746;BME280;74975;51.922;6.480;2024-02-14T05:21:46;101310.22;;;8.97;100.00
84746;BME280;74975;51.922;6.480;2024-02-14T05:24:23;101311.66;;;8.99;100.00
84746;BME280;74975;51.922;6.480;2024-02-14T05:26:58;101313.31;;;9.00;100.00
84746;BME280;74975;51.922;6.480;2024-02-14T05:29:23;101315.94;;;9.00;100.00
84746;BME280;74975;51.922;6.480;2024-02-14T05:31:49;101318.38;;;9.02;100.00
84746;BME280;74975;51.922;6.480;2024-02-14T05:34:14;101315.56;;;9.03;100.00
84746;BME280;74975;51.922;6.480;2024-02-14T05:36:44;101320.16;;;9.01;100.00
84746;BME280;74975;51.922;6.480;2024-02-14T05:39:11;101324.44;;;9.02;100.00
84746;BME280;74975;51.922;6.480;2024-02-14T05:41:46;101317.38;;;9.03;100.00
84746;BME280;74975;51.922;6.480;2024-02-14T05:44:17;101321.63;;;9.04;100.00
84746;BME280;74975;51.922;6.480;2024-02-14T05:46:52;101314.38;;;9.06;100.00
84746;BME280;74975;51.922;6.480;2024-02-14T05:49:27;101317.47;;;9.09;100.00
84746;BME280;74975;51.922;6.480;2024-02-14T05:52:01;101321.72;;;9.10;100.00
84746;BME280;74975;51.922;6.480;2024-02-14T05:54:35;101329.78;;;9.09;100.00
84746;BME280;74975;51.922;6.480;2024-02-14T05:57:07;101326.97;;;9.10;100.00
84746;BME280;74975;51.922;6.480;2024-02-14T05:59:43;101331.59;;;9.08;100.00
84746;BME280;74975;51.922;6.480;2024-02-14T06:02:09;101334.22;;;9.08;100.00
84746;BME280;74975;51.922;6.480;2024-02-14T06:04:41;101336.69;;;9.10;100.00
84746;BME280;74975;51.922;6.480;2024-02-14T06:07:15;101343.56;;;9.11;100.00
84746;BME280;74975;51.922;6.480;2024-02-14T06:09:51;101345.53;;;9.09;100.00
84746;BME280;74975;51.922;6.480;2024-02-14T06:12:24;101344.56;;;9.10;100.00
84746;BME280;74975;51.922;6.480;2024-02-14T06:14:55;101329.78;;;9.09;100.00
84746;BME280;74975;51.922;6.480;2024-02-14T06:17:27;101349.16;;;9.08;100.00
84746;BME280;74975;51.922;6.480;2024-02-14T06:19:58;101355.41;;;9.07;100.00
84746;BME280;74975;51.922;6.480;2024-02-14T06:22:39;101352.59;;;9.08;100.00
84746;BME280;74975;51.922;6.480;2024-02-14T06:25:11;101347.19;;;9.10;100.00
84746;BME280;74975;51.922;6.480;2024-02-14T06:27:45;101347.81;;;9.12;100.00
84746;BME280;74975;51.922;6.480;2024-02-14T06:30:20;101352.44;;;9.10;100.00
84746;BME280;74975;51.922;6.480;2024-02-14T06:32:57;101353.72;;;9.14;100.00
84746;BME280;74975;51.922;6.480;2024-02-14T06:35:35;101342.22;;;9.15;100.00
84746;BME280;74975;51.922;6.480;2024-02-14T06:38:10;101354.97;;;9.18;100.00
84746;BME280;74975;51.922;6.480;2024-02-14T06:40:42;101356.16;;;9.15;100.00
84746;BME280;74975;51.922;6.480;2024-02-14T06:43:09;101369.13;;;9.17;100.00
84746;BME280;74975;51.922;6.480;2024-02-14T06:45:34;101366.31;;;9.18;100.00
84746;BME280;74975;51.922;6.480;2024-02-14T06:48:07;101367.94;;;9.19;100.00
84746;BME280;74975;51.922;6.480;2024-02-14T06:50:39;101375.16;;;9.17;100.00
84746;BME280;74975;51.922;6.480;2024-02-14T06:53:08;101382.06;;;9.18;100.00
84746;BME280;74975;51.922;6.480;2024-02-14T06:55:42;101374.00;;;9.20;100.00
84746;BME280;74975;51.922;6.480;2024-02-14T06:58:07;101378.47;;;9.19;100.00
84746;BME280;74975;51.922;6.480;2024-02-14T07:00:42;101381.25;;;9.18;100.00
84746;BME280;74975;51.922;6.480;2024-02-14T07:03:19;101388.97;;;9.19;100.00
84746;BME280;74975;51.922;6.480;2024-02-14T07:05:49;101393.22;;;9.20;100.00
84746;BME280;74975;51.922;6.480;2024-02-14T07:08:27;101392.38;;;9.20;100.00
84746;BME280;74975;51.922;6.480;2024-02-14T07:11:04;101395.00;;;9.20;100.00
84746;BME280;74975;51.922;6.480;2024-02-14T07:13:53;101391.41;;;9.21;100.00
84746;BME280;74975;51.922;6.480;2024-02-14T07:16:26;101395.69;;;9.22;100.00
84746;BME280;74975;51.922;6.480;2024-02-14T07:19:00;101392.84;;;9.23;100.00
84746;BME280;74975;51.922;6.480;2024-02-14T07:21:35;101402.38;;;9.24;100.00
84746;BME280;74975;51.922;6.480;2024-02-14T07:24:07;101401.56;;;9.24;100.00
84746;BME280;74975;51.922;6.480;2024-02-14T07:26:39;101395.47;;;9.23;100.00
84746;BME280;74975;51.922;6.480;2024-02-14T07:29:16;101388.25;;;9.25;100.00
84746;BME280;74975;51.922;6.480;2024-02-14T07:31:52;101389.88;;;9.26;100.00
84746;BME280;74975;51.922;6.480;2024-02-14T07:34:24;101391.50;;;9.27;100.00
84746;BME280;74975;51.922;6.480;2024-02-14T07:36:55;101399.22;;;9.29;100.00
84746;BME280;74975;51.922;6.480;2024-02-14T07:39:28;101398.06;;;9.32;100.00
84746;BME280;74975;51.922;6.480;2024-02-14T07:41:54;101392.59;;;9.33;100.00
84746;BME280;74975;51.922;6.480;2024-02-14T07:44:29;101401.94;;;9.36;100.00
84746;BME280;74975;51.922;6.480;2024-02-14T07:46:55;101396.69;;;9.36;100.00
84746;BME280;74975;51.922;6.480;2024-02-14T07:49:26;101403.75;;;9.35;100.00
84746;BME280;74975;51.922;6.480;2024-02-14T07:51:59;101405.41;;;9.36;100.00
84746;BME280;74975;51.922;6.480;2024-02-14T07:54:32;101396.16;;;9.40;100.00
84746;BME280;74975;51.922;6.480;2024-02-14T07:57:05;101408.94;;;9.43;100.00
84746;BME280;74975;51.922;6.480;2024-02-14T07:59:50;101411.22;;;9.46;100.00
84746;BME280;74975;51.922;6.480;2024-02-14T08:02:24;101408.41;;;9.48;100.00
84746;BME280;74975;51.922;6.480;2024-02-14T08:04:57;101408.88;;;9.51;100.00
84746;BME280;74975;51.922;6.480;2024-02-14T08:11:01;101421.13;;;9.59;100.00
84746;BME280;74975;51.922;6.480;2024-02-14T08:14:05;101425.38;;;9.60;100.00
84746;BME280;74975;51.922;6.480;2024-02-14T08:16:42;101413.22;;;9.59;100.00
84746;BME280;74975;51.922;6.480;2024-02-14T08:19:25;101415.47;;;9.62;100.00
84746;BME280;74975;51.922;6.480;2024-02-14T08:25:53;101423.28;;;9.70;100.00
84746;BME280;74975;51.922;6.480;2024-02-14T08:28:23;101421.94;;;9.74;100.00
84746;BME280;74975;51.922;6.480;2024-02-14T08:31:01;101427.81;;;9.76;100.00
84746;BME280;74975;51.922;6.480;2024-02-14T08:33:57;101435.53;;;9.77;100.00
84746;BME280;74975;51.922;6.480;2024-02-14T08:36:54;101428.47;;;9.78;100.00
84746;BME280;74975;51.922;6.480;2024-02-14T08:40:11;101434.72;;;9.77;100.00
84746;BME280;74975;51.922;6.480;2024-02-14T08:43:06;101439.44;;;9.81;100.00
84746;BME280;74975;51.922;6.480;2024-02-14T08:45:37;101435.97;;;9.81;100.00
84746;BME280;74975;51.922;6.480;2024-02-14T08:48:09;101429.38;;;9.85;100.00
84746;BME280;74975;51.922;6.480;2024-02-14T08:50:43;101440.97;;;9.90;100.00
84746;BME280;74975;51.922;6.480;2024-02-14T08:53:23;101434.72;;;9.91;100.00
84746;BME280;74975;51.922;6.480;2024-02-14T08:55:59;101449.97;;;9.96;100.00
84746;BME280;74975;51.922;6.480;2024-02-14T08:58:25;101444.88;;;9.94;100.00
84746;BME280;74975;51.922;6.480;2024-02-14T09:00:57;101445.53;;;9.96;100.00
84746;BME280;74975;51.922;6.480;2024-02-14T09:03:33;101449.06;;;9.89;100.00
84746;BME280;74975;51.922;6.480;2024-02-14T09:06:09;101452.22;;;9.84;100.00
84746;BME280;74975;51.922;6.480;2024-02-14T09:08:44;101454.22;;;9.82;100.00
84746;BME280;74975;51.922;6.480;2024-02-14T09:11:18;101453.41;;;9.82;100.00
84746;BME280;74975;51.922;6.480;2024-02-14T09:14:02;101464.38;;;9.85;100.00
84746;BME280;74975;51.922;6.480;2024-02-14T09:16:39;101460.31;;;9.83;100.00
84746;BME280;74975;51.922;6.480;2024-02-14T09:19:34;101464.56;;;9.84;100.00
84746;BME280;74975;51.922;6.480;2024-02-14T09:22:10;101460.31;;;9.83;100.00
84746;BME280;74975;51.922;6.480;2024-02-14T09:24:50;101468.19;;;9.83;100.00
84746;BME280;74975;51.922;6.480;2024-02-14T09:27:35;101473.06;;;9.86;100.00
84746;BME280;74975;51.922;6.480;2024-02-14T09:30:27;101468.63;;;9.86;100.00
84746;BME280;74975;51.922;6.480;2024-02-14T09:32:52;101475.16;;;9.90;100.00
84746;BME280;74975;51.922;6.480;2024-02-14T09:35:18;101472.91;;;9.87;100.00
84746;BME280;74975;51.922;6.480;2024-02-14T09:37:51;101464.63;;;9.90;100.00
84746;BME280;74975;51.922;6.480;2024-02-14T09:40:21;101470.91;;;9.89;100.00
84746;BME280;74975;51.922;6.480;2024-02-14T09:43:11;101470.72;;;9.91;100.00
84746;BME280;74975;51.922;6.480;2024-02-14T09:45:45;101473.34;;;9.91;100.00
84746;BME280;74975;51.922;6.480;2024-02-14T09:48:15;101482.69;;;9.93;100.00
84746;BME280;74975;51.922;6.480;2024-02-14T09:50:53;101484.50;;;9.93;100.00
84746;BME280;74975;51.922;6.480;2024-02-14T09:53:22;101480.88;;;9.94;100.00
84746;BME280;74975;51.922;6.480;2024-02-14T09:55:53;101479.06;;;9.94;100.00
84746;BME280;74975;51.922;6.480;2024-02-14T09:58:23;101482.81;;;10.00;100.00
84746;BME280;74975;51.922;6.480;2024-02-14T10:00:52;101484.91;;;10.05;100.00
84746;BME280;74975;51.922;6.480;2024-02-14T10:03:24;101490.78;;;10.07;100.00
84746;BME280;74975;51.922;6.480;2024-02-14T10:05:51;101488.59;;;10.10;100.00
84746;BME280;74975;51.922;6.480;2024-02-14T10:08:19;101483.19;;;10.12;100.00
84746;BME280;74975;51.922;6.480;2024-02-14T10:10:56;101487.44;;;10.13;100.00
84746;BME280;74975;51.922;6.480;2024-02-14T10:13:26;101486.28;;;10.15;100.00
84746;BME280;74975;51.922;6.480;2024-02-14T10:15:56;101486.78;;;10.11;100.00
84746;BME280;74975;51.922;6.480;2024-02-14T10:18:23;101481.72;;;10.09;100.00
84746;BME280;74975;51.922;6.480;2024-02-14T10:21:04;101501.75;;;10.10;100.00
84746;BME280;74975;51.922;6.480;2024-02-14T10:23:34;101512.13;;;10.12;100.00
84746;BME280;74975;51.922;6.480;2024-02-14T10:26:07;101509.31;;;10.13;100.00
84746;BME280;74975;51.922;6.480;2024-02-14T10:28:45;101506.13;;;10.18;100.00
84746;BME280;74975;51.922;6.480;2024-02-14T10:31:11;101500.88;;;10.18;100.00
84746;BME280;74975;51.922;6.480;2024-02-14T10:33:41;101512.84;;;10.20;100.00
84746;BME280;74975;51.922;6.480;2024-02-14T10:36:12;101511.88;;;10.21;100.00
84746;BME280;74975;51.922;6.480;2024-02-14T10:38:43;101513.13;;;10.25;100.00
84746;BME280;74975;51.922;6.480;2024-02-14T10:41:11;101506.53;;;10.29;100.00
84746;BME280;74975;51.922;6.480;2024-02-14T10:43:40;101509.94;;;10.30;100.00
84746;BME280;74975;51.922;6.480;2024-02-14T10:46:19;101499.69;;;10.35;100.00
84746;BME280;74975;51.922;6.480;2024-02-14T10:49:07;101509.50;;;10.41;100.00
84746;BME280;74975;51.922;6.480;2024-02-14T10:51:40;101504.59;;;10.52;99.92
84746;BME280;74975;51.922;6.480;2024-02-14T10:54:15;101509.94;;;10.59;99.76
84746;BME280;74975;51.922;6.480;2024-02-14T10:56:49;101506.38;;;10.67;99.13
84746;BME280;74975;51.922;6.480;2024-02-14T10:59:22;101505.66;;;10.73;99.38
84746;BME280;74975;51.922;6.480;2024-02-14T11:01:49;101513.00;;;10.77;99.04
84746;BME280;74975;51.922;6.480;2024-02-14T11:04:26;101512.19;;;10.77;98.53
84746;BME280;74975;51.922;6.480;2024-02-14T11:06:55;101512.38;;;10.75;98.44
84746;BME280;74975;51.922;6.480;2024-02-14T11:09:36;101503.91;;;10.80;99.07
84746;BME280;74975;51.922;6.480;2024-02-14T11:12:03;101510.91;;;10.87;98.57
84746;BME280;74975;51.922;6.480;2024-02-14T11:14:41;101508.06;;;10.89;98.20
84746;BME280;74975;51.922;6.480;2024-02-14T11:17:15;101505.22;;;10.90;98.07
84746;BME280;74975;51.922;6.480;2024-02-14T11:19:48;101505.69;;;10.94;98.49
84746;BME280;74975;51.922;6.480;2024-02-14T11:22:26;101501.50;;;10.99;97.93
84746;BME280;74975;51.922;6.480;2024-02-14T11:25:06;101503.00;;;11.08;97.55
84746;BME280;74975;51.922;6.480;2024-02-14T11:27:44;101510.84;;;11.23;97.44
84746;BME280;74975;51.922;6.480;2024-02-14T11:30:12;101508.47;;;11.28;98.09
84746;BME280;74975;51.922;6.480;2024-02-14T11:32:37;101502.28;;;11.36;96.91
84746;BME280;74975;51.922;6.480;2024-02-14T11:35:17;101494.41;;;11.42;97.77
84746;BME280;74975;51.922;6.480;2024-02-14T11:37:42;101496.63;;;11.39;97.58
84746;BME280;74975;51.922;6.480;2024-02-14T11:40:08;101502.69;;;11.39;97.62
84746;BME280;74975;51.922;6.480;2024-02-14T11:42:40;101486.63;;;11.34;97.47
84746;BME280;74975;51.922;6.480;2024-02-14T11:45:06;101501.03;;;11.32;96.68
84746;BME280;74975;51.922;6.480;2024-02-14T11:47:35;101499.75;;;11.27;97.23
84746;BME280;74975;51.922;6.480;2024-02-14T11:50:08;101504.84;;;11.29;97.36
84746;BME280;74975;51.922;6.480;2024-02-14T11:52:40;101489.09;;;11.36;96.96
84746;BME280;74975;51.922;6.480;2024-02-14T11:55:12;101484.06;;;11.41;97.01
84746;BME280;74975;51.922;6.480;2024-02-14T11:57:43;101481.84;;;11.44;96.63
84746;BME280;74975;51.922;6.480;2024-02-14T12:00:16;101480.53;;;11.55;97.37
84746;BME280;74975;51.922;6.480;2024-02-14T12:02:43;101474.88;;;11.58;96.20
84746;BME280;74975;51.922;6.480;2024-02-14T12:05:15;101484.59;;;11.57;96.30
84746;BME280;74975;51.922;6.480;2024-02-14T12:07:44;101489.50;;;11.60;95.49
84746;BME280;74975;51.922;6.480;2024-02-14T12:10:16;101491.94;;;11.62;95.84
84746;BME280;74975;51.922;6.480;2024-02-14T12:12:48;101489.50;;;11.60;95.48
84746;BME280;74975;51.922;6.480;2024-02-14T12:15:25;101486.44;;;11.57;96.93
84746;BME280;74975;51.922;6.480;2024-02-14T12:17:58;101486.19;;;11.52;96.63
84746;BME280;74975;51.922;6.480;2024-02-14T12:20:23;101473.44;;;11.55;96.78
84746;BME280;74975;51.922;6.480;2024-02-14T12:22:57;101483.78;;;11.57;96.67
84746;BME280;74975;51.922;6.480;2024-02-14T12:25:22;101490.34;;;11.61;96.95
84746;BME280;74975;51.922;6.480;2024-02-14T12:28:00;101483.41;;;11.60;97.23
84746;BME280;74975;51.922;6.480;2024-02-14T12:30:42;101486.56;;;11.49;97.00
84746;BME280;74975;51.922;6.480;2024-02-14T12:33:16;101482.06;;;11.43;97.99
84746;BME280;74975;51.922;6.480;2024-02-14T12:35:51;101479.22;;;11.44;97.76
84746;BME280;74975;51.922;6.480;2024-02-14T12:38:21;101486.94;;;11.46;98.13
84746;BME280;74975;51.922;6.480;2024-02-14T12:40:48;101488.06;;;11.58;97.46
84746;BME280;74975;51.922;6.480;2024-02-14T12:43:18;101467.84;;;11.65;97.08
84746;BME280;74975;51.922;6.480;2024-02-14T12:45:48;101480.69;;;11.68;96.87
84746;BME280;74975;51.922;6.480;2024-02-14T12:48:22;101486.19;;;11.73;96.80
84746;BME280;74975;51.922;6.480;2024-02-14T12:50:49;101488.63;;;11.74;96.95
84746;BME280;74975;51.922;6.480;2024-02-14T12:53:15;101483.59;;;11.79;96.81
84746;BME280;74975;51.922;6.480;2024-02-14T12:55:40;101491.06;;;11.76;97.13
84746;BME280;74975;51.922;6.480;2024-02-14T12:58:07;101478.28;;;11.73;97.52
84746;BME280;74975;51.922;6.480;2024-02-14T13:00:33;101470.75;;;11.70;97.51
84746;BME280;74975;51.922;6.480;2024-02-14T13:03:01;101475.28;;;11.61;97.87
84746;BME280;74975;51.922;6.480;2024-02-14T13:05:36;101480.53;;;11.55;97.32
84746;BME280;74975;51.922;6.480;2024-02-14T13:08:06;101480.72;;;11.53;97.42
84746;BME280;74975;51.922;6.480;2024-02-14T13:10:33;101482.09;;;11.49;97.60
84746;BME280;74975;51.922;6.480;2024-02-14T13:12:59;101475.22;;;11.48;97.20
84746;BME280;74975;51.922;6.480;2024-02-14T13:15:31;101469.50;;;11.45;96.94
84746;BME280;74975;51.922;6.480;2024-02-14T13:18:03;101463.34;;;11.38;97.01
84746;BME280;74975;51.922;6.480;2024-02-14T13:20:29;101468.00;;;11.36;97.42
84746;BME280;74975;51.922;6.480;2024-02-14T13:22:58;101467.38;;;11.34;97.96
84746;BME280;74975;51.922;6.480;2024-02-14T13:25:23;101474.66;;;11.32;98.34
84746;BME280;74975;51.922;6.480;2024-02-14T13:27:52;101466.75;;;11.32;98.28
84746;BME280;74975;51.922;6.480;2024-02-14T13:30:26;101461.66;;;11.30;97.87
84746;BME280;74975;51.922;6.480;2024-02-14T13:33:00;101457.78;;;11.26;98.79
84746;BME280;74975;51.922;6.480;2024-02-14T13:35:33;101468.13;;;11.27;99.36